sensor_id;sensor_type;location;lat;lon;timestamp;temperature;humidity
13164;DHT22;6647;53.688;10.746;2023-05-31T00:00:04;13.40;99.90
13164;DHT22;6647;53.688;10.746;2023-05-31T00:01:05;13.40;99.90
13164;DHT22;6647;53.688;10.746;2023-05-31T00:02:06;13.30;99.90
13164;DHT22;6647;53.688;10.746;2023-05-31T00:03:07;13.30;99.90
13164;DHT22;6647;53.688;10.746;2023-05-31T00:04:08;13.30;99.90
13164;DHT22;6647;53.688;10.746;2023-05-31T00:05:09;13.20;99.90
13164;DHT22;6647;53.688;10.746;2023-05-31T00:06:10;13.20;99.90
13164;DHT22;6647;53.688;10.746;2023-05-31T00:07:12;13.20;99.90
13164;DHT22;6647;53.688;10.746;2023-05-31T00:08:12;13.20;99.90
13164;DHT22;6647;53.688;10.746;2023-05-31T00:09:13;13.10;99.90
13164;DHT22;6647;53.688;10.746;2023-05-31T00:10:15;13.10;99.90
13164;DHT22;6647;53.688;10.746;2023-05-31T00:11:15;13.10;99.90
13164;DHT22;6647;53.688;10.746;2023-05-31T00:12:16;13.10;99.90
13164;DHT22;6647;53.688;10.746;2023-05-31T00:13:17;13.10;99.90
13164;DHT22;6647;53.688;10.746;2023-05-31T00:14:18;13.10;99.90
13164;DHT22;6647;53.688;10.746;2023-05-31T00:15:19;13.10;99.90
13164;DHT22;6647;53.688;10.746;2023-05-31T00:16:19;13.00;99.90
13164;DHT22;6647;53.688;10.746;2023-05-31T00:17:20;13.00;99.90
13164;DHT22;6647;53.688;10.746;2023-05-31T00:18:21;13.00;99.90
13164;DHT22;6647;53.688;10.746;2023-05-31T00:19:21;13.00;99.90
13164;DHT22;6647;53.688;10.746;2023-05-31T00:20:22;12.90;99.90
13164;DHT22;6647;53.688;10.746;2023-05-31T00:21:23;12.90;99.90
13164;DHT22;6647;53.688;10.746;2023-05-31T00:22:24;12.90;99.90
13164;DHT22;6647;53.688;10.746;2023-05-31T00:23:25;12.90;99.90
13164;DHT22;6647;53.688;10.746;2023-05-31T00:24:25;12.90;99.90
13164;DHT22;6647;53.688;10.746;2023-05-31T00:25:26;12.90;99.90
13164;DHT22;6647;53.688;10.746;2023-05-31T00:26:27;12.80;99.90
13164;DHT22;6647;53.688;10.746;2023-05-31T00:27:27;12.80;99.90
13164;DHT22;6647;53.688;10.746;2023-05-31T00:28:28;12.80;99.90
13164;DHT22;6647;53.688;10.746;2023-05-31T00:29:29;12.80;99.90
13164;DHT22;6647;53.688;10.746;2023-05-31T00:30:30;12.70;99.90
13164;DHT22;6647;53.688;10.746;2023-05-31T00:31:31;12.70;99.90
13164;DHT22;6647;53.688;10.746;2023-05-31T00:32:31;12.70;99.90
13164;DHT22;6647;53.688;10.746;2023-05-31T00:33:32;12.70;99.90
13164;DHT22;6647;53.688;10.746;2023-05-31T00:34:33;12.70;99.90
13164;DHT22;6647;53.688;10.746;2023-05-31T00:35:34;12.70;99.90
13164;DHT22;6647;53.688;10.746;2023-05-31T00:36:34;12.60;99.90
13164;DHT22;6647;53.688;10.746;2023-05-31T00:37:36;12.60;99.90
13164;DHT22;6647;53.688;10.746;2023-05-31T00:38:38;12.60;99.90
13164;DHT22;6647;53.688;10.746;2023-05-31T00:39:38;12.60;99.90
13164;DHT22;6647;53.688;10.746;2023-05-31T00:40:39;12.60;99.90
13164;DHT22;6647;53.688;10.746;2023-05-31T00:41:40;12.50;99.90
13164;DHT22;6647;53.688;10.746;2023-05-31T00:42:40;12.50;99.90
13164;DHT22;6647;53.688;10.746;2023-05-31T00:43:41;12.50;99.90
13164;DHT22;6647;53.688;10.746;2023-05-31T00:44:43;12.50;99.90
13164;DHT22;6647;53.688;10.746;2023-05-31T00:45:44;12.40;99.90
13164;DHT22;6647;53.688;10.746;2023-05-31T00:46:45;12.40;99.90
13164;DHT22;6647;53.688;10.746;2023-05-31T00:47:45;12.40;99.90
13164;DHT22;6647;53.688;10.746;2023-05-31T00:48:46;12.40;99.90
13164;DHT22;6647;53.688;10.746;2023-05-31T00:49:47;12.40;99.90
13164;DHT22;6647;53.688;10.746;2023-05-31T00:50:49;12.40;99.90
13164;DHT22;6647;53.688;10.746;2023-05-31T00:51:50;12.30;99.90
13164;DHT22;6647;53.688;10.746;2023-05-31T00:52:53;12.30;99.90
13164;DHT22;6647;53.688;10.746;2023-05-31T00:53:56;12.30;99.90
13164;DHT22;6647;53.688;10.746;2023-05-31T00:54:59;12.30;99.90
13164;DHT22;6647;53.688;10.746;2023-05-31T00:56:00;12.30;99.90
13164;DHT22;6647;53.688;10.746;2023-05-31T00:57:01;12.30;99.90
13164;DHT22;6647;53.688;10.746;2023-05-31T00:58:02;12.20;99.90
13164;DHT22;6647;53.688;10.746;2023-05-31T00:59:04;12.20;99.90
13164;DHT22;6647;53.688;10.746;2023-05-31T01:00:06;12.20;99.90
13164;DHT22;6647;53.688;10.746;2023-05-31T01:01:09;12.20;99.90
13164;DHT22;6647;53.688;10.746;2023-05-31T01:02:11;12.20;99.90
13164;DHT22;6647;53.688;10.746;2023-05-31T01:03:15;12.20;99.90
13164;DHT22;6647;53.688;10.746;2023-05-31T01:04:16;12.10;99.90
13164;DHT22;6647;53.688;10.746;2023-05-31T01:05:17;12.10;99.90
13164;DHT22;6647;53.688;10.746;2023-05-31T01:06:20;12.10;99.90
13164;DHT22;6647;53.688;10.746;2023-05-31T01:07:22;12.00;99.90
13164;DHT22;6647;53.688;10.746;2023-05-31T01:08:22;12.10;99.90
13164;DHT22;6647;53.688;10.746;2023-05-31T01:09:23;12.10;99.90
13164;DHT22;6647;53.688;10.746;2023-05-31T01:10:24;12.10;99.90
13164;DHT22;6647;53.688;10.746;2023-05-31T01:14:55;12.00;99.90
13164;DHT22;6647;53.688;10.746;2023-05-31T01:16:08;12.00;99.90
13164;DHT22;6647;53.688;10.746;2023-05-31T01:17:23;11.90;99.90
13164;DHT22;6647;53.688;10.746;2023-05-31T01:18:54;11.90;99.90
13164;DHT22;6647;53.688;10.746;2023-05-31T01:20:01;11.90;99.90
13164;DHT22;6647;53.688;10.746;2023-05-31T01:21:05;11.90;99.90
13164;DHT22;6647;53.688;10.746;2023-05-31T01:22:26;11.90;99.90
13164;DHT22;6647;53.688;10.746;2023-05-31T01:23:49;11.90;99.90
13164;DHT22;6647;53.688;10.746;2023-05-31T01:26:40;11.80;99.90
13164;DHT22;6647;53.688;10.746;2023-05-31T01:27:45;11.80;99.90
13164;DHT22;6647;53.688;10.746;2023-05-31T01:28:50;11.80;99.90
13164;DHT22;6647;53.688;10.746;2023-05-31T01:29:53;11.80;99.90
13164;DHT22;6647;53.688;10.746;2023-05-31T01:31:00;11.80;99.90
13164;DHT22;6647;53.688;10.746;2023-05-31T01:32:01;11.80;99.90
13164;DHT22;6647;53.688;10.746;2023-05-31T01:33:08;11.80;99.90
13164;DHT22;6647;53.688;10.746;2023-05-31T01:34:11;11.80;99.90
13164;DHT22;6647;53.688;10.746;2023-05-31T01:35:14;11.80;99.90
13164;DHT22;6647;53.688;10.746;2023-05-31T01:36:14;11.80;99.90
13164;DHT22;6647;53.688;10.746;2023-05-31T01:37:15;11.80;99.90
13164;DHT22;6647;53.688;10.746;2023-05-31T01:38:16;11.80;99.90
13164;DHT22;6647;53.688;10.746;2023-05-31T01:39:17;11.80;99.90
13164;DHT22;6647;53.688;10.746;2023-05-31T01:40:18;11.80;99.90
13164;DHT22;6647;53.688;10.746;2023-05-31T01:41:20;11.80;99.90
13164;DHT22;6647;53.688;10.746;2023-05-31T01:42:23;11.80;99.90
13164;DHT22;6647;53.688;10.746;2023-05-31T01:43:25;11.80;99.90
13164;DHT22;6647;53.688;10.746;2023-05-31T01:44:27;11.80;99.90
13164;DHT22;6647;53.688;10.746;2023-05-31T01:45:28;11.80;99.90
13164;DHT22;6647;53.688;10.746;2023-05-31T01:46:30;11.80;99.90
13164;DHT22;6647;53.688;10.746;2023-05-31T01:47:31;11.80;99.90
13164;DHT22;6647;53.688;10.746;2023-05-31T01:48:33;11.80;99.90
13164;DHT22;6647;53.688;10.746;2023-05-31T01:49:36;11.70;99.90
13164;DHT22;6647;53.688;10.746;2023-05-31T01:50:39;11.70;99.90
13164;DHT22;6647;53.688;10.746;2023-05-31T01:51:41;11.70;99.90
13164;DHT22;6647;53.688;10.746;2023-05-31T01:52:43;11.70;99.90
13164;DHT22;6647;53.688;10.746;2023-05-31T01:53:44;11.70;99.90
13164;DHT22;6647;53.688;10.746;2023-05-31T01:54:45;11.70;99.90
13164;DHT22;6647;53.688;10.746;2023-05-31T01:55:47;11.60;99.90
13164;DHT22;6647;53.688;10.746;2023-05-31T01:56:48;11.60;99.90
13164;DHT22;6647;53.688;10.746;2023-05-31T01:57:51;11.60;99.90
13164;DHT22;6647;53.688;10.746;2023-05-31T01:58:52;11.60;99.90
13164;DHT22;6647;53.688;10.746;2023-05-31T01:59:54;11.60;99.90
13164;DHT22;6647;53.688;10.746;2023-05-31T02:00:55;11.60;99.90
13164;DHT22;6647;53.688;10.746;2023-05-31T02:01:57;11.50;99.90
13164;DHT22;6647;53.688;10.746;2023-05-31T02:02:58;11.50;99.90
13164;DHT22;6647;53.688;10.746;2023-05-31T02:03:58;11.60;99.90
13164;DHT22;6647;53.688;10.746;2023-05-31T02:05:07;11.50;99.90
13164;DHT22;6647;53.688;10.746;2023-05-31T02:06:08;11.50;99.90
13164;DHT22;6647;53.688;10.746;2023-05-31T02:07:13;11.50;99.90
13164;DHT22;6647;53.688;10.746;2023-05-31T02:08:14;11.50;99.90
13164;DHT22;6647;53.688;10.746;2023-05-31T02:09:15;11.50;99.90
13164;DHT22;6647;53.688;10.746;2023-05-31T02:10:16;11.50;99.90
13164;DHT22;6647;53.688;10.746;2023-05-31T02:11:18;11.50;99.90
13164;DHT22;6647;53.688;10.746;2023-05-31T02:12:19;11.40;99.90
13164;DHT22;6647;53.688;10.746;2023-05-31T02:13:22;11.40;99.90
13164;DHT22;6647;53.688;10.746;2023-05-31T02:14:23;11.40;99.90
13164;DHT22;6647;53.688;10.746;2023-05-31T02:15:23;11.40;99.90
13164;DHT22;6647;53.688;10.746;2023-05-31T02:16:24;11.40;99.90
13164;DHT22;6647;53.688;10.746;2023-05-31T02:17:25;11.40;99.90
13164;DHT22;6647;53.688;10.746;2023-05-31T02:18:26;11.40;99.90
13164;DHT22;6647;53.688;10.746;2023-05-31T02:19:27;11.30;99.90
13164;DHT22;6647;53.688;10.746;2023-05-31T02:20:29;11.30;99.90
13164;DHT22;6647;53.688;10.746;2023-05-31T02:21:33;11.30;99.90
13164;DHT22;6647;53.688;10.746;2023-05-31T02:22:35;11.30;99.90
13164;DHT22;6647;53.688;10.746;2023-05-31T02:23:36;11.30;99.90
13164;DHT22;6647;53.688;10.746;2023-05-31T02:24:37;11.20;99.90
13164;DHT22;6647;53.688;10.746;2023-05-31T02:25:38;11.20;99.90
13164;DHT22;6647;53.688;10.746;2023-05-31T02:26:38;11.20;99.90
13164;DHT22;6647;53.688;10.746;2023-05-31T02:27:40;11.20;99.90
13164;DHT22;6647;53.688;10.746;2023-05-31T02:28:41;11.20;99.90
13164;DHT22;6647;53.688;10.746;2023-05-31T02:29:45;11.20;99.90
13164;DHT22;6647;53.688;10.746;2023-05-31T02:30:59;11.20;99.90
13164;DHT22;6647;53.688;10.746;2023-05-31T02:32:00;11.20;99.90
13164;DHT22;6647;53.688;10.746;2023-05-31T02:33:01;11.20;99.90
13164;DHT22;6647;53.688;10.746;2023-05-31T02:34:02;11.20;99.90
13164;DHT22;6647;53.688;10.746;2023-05-31T02:35:08;11.20;99.90
13164;DHT22;6647;53.688;10.746;2023-05-31T02:36:10;11.20;99.90
13164;DHT22;6647;53.688;10.746;2023-05-31T02:37:12;11.20;99.90
13164;DHT22;6647;53.688;10.746;2023-05-31T02:38:13;11.20;99.90
13164;DHT22;6647;53.688;10.746;2023-05-31T02:39:13;11.20;99.90
13164;DHT22;6647;53.688;10.746;2023-05-31T02:40:14;11.20;99.90
13164;DHT22;6647;53.688;10.746;2023-05-31T02:41:15;11.20;99.90
13164;DHT22;6647;53.688;10.746;2023-05-31T02:42:15;11.20;99.90
13164;DHT22;6647;53.688;10.746;2023-05-31T02:43:16;11.20;99.90
13164;DHT22;6647;53.688;10.746;2023-05-31T02:44:17;11.10;99.90
13164;DHT22;6647;53.688;10.746;2023-05-31T02:45:18;11.10;99.90
13164;DHT22;6647;53.688;10.746;2023-05-31T02:46:18;11.10;99.90
13164;DHT22;6647;53.688;10.746;2023-05-31T02:47:19;11.10;99.90
13164;DHT22;6647;53.688;10.746;2023-05-31T02:48:21;11.10;99.90
13164;DHT22;6647;53.688;10.746;2023-05-31T02:49:21;11.10;99.90
13164;DHT22;6647;53.688;10.746;2023-05-31T02:50:23;11.10;99.90
13164;DHT22;6647;53.688;10.746;2023-05-31T02:51:23;11.10;99.90
13164;DHT22;6647;53.688;10.746;2023-05-31T02:52:25;11.10;99.90
13164;DHT22;6647;53.688;10.746;2023-05-31T02:53:26;11.10;99.90
13164;DHT22;6647;53.688;10.746;2023-05-31T02:54:28;11.10;99.90
13164;DHT22;6647;53.688;10.746;2023-05-31T02:55:30;11.10;99.90
13164;DHT22;6647;53.688;10.746;2023-05-31T02:56:30;11.10;99.90
13164;DHT22;6647;53.688;10.746;2023-05-31T02:57:32;11.10;99.90
13164;DHT22;6647;53.688;10.746;2023-05-31T02:58:32;11.10;99.90
13164;DHT22;6647;53.688;10.746;2023-05-31T02:59:33;11.10;99.90
13164;DHT22;6647;53.688;10.746;2023-05-31T03:00:34;11.10;99.90
13164;DHT22;6647;53.688;10.746;2023-05-31T03:01:35;11.10;99.90
13164;DHT22;6647;53.688;10.746;2023-05-31T03:02:37;11.10;99.90
13164;DHT22;6647;53.688;10.746;2023-05-31T03:03:38;11.10;99.90
13164;DHT22;6647;53.688;10.746;2023-05-31T03:04:39;11.10;99.90
13164;DHT22;6647;53.688;10.746;2023-05-31T03:05:42;11.10;99.90
13164;DHT22;6647;53.688;10.746;2023-05-31T03:06:44;11.00;99.90
13164;DHT22;6647;53.688;10.746;2023-05-31T03:07:45;11.00;99.90
13164;DHT22;6647;53.688;10.746;2023-05-31T03:08:45;11.00;99.90
13164;DHT22;6647;53.688;10.746;2023-05-31T03:09:46;11.00;99.90
13164;DHT22;6647;53.688;10.746;2023-05-31T03:10:47;11.00;99.90
13164;DHT22;6647;53.688;10.746;2023-05-31T03:11:47;11.00;99.90
13164;DHT22;6647;53.688;10.746;2023-05-31T03:12:48;11.00;99.90
13164;DHT22;6647;53.688;10.746;2023-05-31T03:13:49;11.00;99.90
13164;DHT22;6647;53.688;10.746;2023-05-31T03:14:50;11.00;99.90
13164;DHT22;6647;53.688;10.746;2023-05-31T03:15:50;11.00;99.90
13164;DHT22;6647;53.688;10.746;2023-05-31T03:16:52;11.00;99.90
13164;DHT22;6647;53.688;10.746;2023-05-31T03:17:54;11.00;99.90
13164;DHT22;6647;53.688;10.746;2023-05-31T03:18:56;10.90;99.90
13164;DHT22;6647;53.688;10.746;2023-05-31T03:19:57;11.00;99.90
13164;DHT22;6647;53.688;10.746;2023-05-31T03:20:58;11.00;99.90
13164;DHT22;6647;53.688;10.746;2023-05-31T03:21:58;10.90;99.90
13164;DHT22;6647;53.688;10.746;2023-05-31T03:22:59;10.90;99.90
13164;DHT22;6647;53.688;10.746;2023-05-31T03:24:00;10.90;99.90
13164;DHT22;6647;53.688;10.746;2023-05-31T03:25:02;10.90;99.90
13164;DHT22;6647;53.688;10.746;2023-05-31T03:26:04;10.90;99.90
13164;DHT22;6647;53.688;10.746;2023-05-31T03:27:04;10.90;99.90
13164;DHT22;6647;53.688;10.746;2023-05-31T03:28:06;10.90;99.90
13164;DHT22;6647;53.688;10.746;2023-05-31T03:29:07;10.90;99.90
13164;DHT22;6647;53.688;10.746;2023-05-31T03:30:08;10.90;99.90
13164;DHT22;6647;53.688;10.746;2023-05-31T03:31:09;10.90;99.90
13164;DHT22;6647;53.688;10.746;2023-05-31T03:32:10;10.90;99.90
13164;DHT22;6647;53.688;10.746;2023-05-31T03:33:11;10.90;99.90
13164;DHT22;6647;53.688;10.746;2023-05-31T03:34:12;10.90;99.90
13164;DHT22;6647;53.688;10.746;2023-05-31T03:35:12;10.90;99.90
13164;DHT22;6647;53.688;10.746;2023-05-31T03:36:13;10.90;99.90
13164;DHT22;6647;53.688;10.746;2023-05-31T03:37:14;10.90;99.90
13164;DHT22;6647;53.688;10.746;2023-05-31T03:38:14;10.80;99.90
13164;DHT22;6647;53.688;10.746;2023-05-31T03:39:15;10.80;99.90
13164;DHT22;6647;53.688;10.746;2023-05-31T03:40:16;10.80;99.90
13164;DHT22;6647;53.688;10.746;2023-05-31T03:41:17;10.80;99.90
13164;DHT22;6647;53.688;10.746;2023-05-31T03:42:18;10.80;99.90
13164;DHT22;6647;53.688;10.746;2023-05-31T03:43:19;10.80;99.90
13164;DHT22;6647;53.688;10.746;2023-05-31T03:44:19;10.80;99.90
13164;DHT22;6647;53.688;10.746;2023-05-31T03:45:20;10.80;99.90
13164;DHT22;6647;53.688;10.746;2023-05-31T03:46:21;10.80;99.90
13164;DHT22;6647;53.688;10.746;2023-05-31T03:47:22;10.80;99.90
13164;DHT22;6647;53.688;10.746;2023-05-31T03:48:23;10.80;99.90
13164;DHT22;6647;53.688;10.746;2023-05-31T03:49:24;10.80;99.90
13164;DHT22;6647;53.688;10.746;2023-05-31T03:50:25;10.80;99.90
13164;DHT22;6647;53.688;10.746;2023-05-31T03:51:26;10.80;99.90
13164;DHT22;6647;53.688;10.746;2023-05-31T03:52:26;10.80;99.90
13164;DHT22;6647;53.688;10.746;2023-05-31T03:53:27;10.80;99.90
13164;DHT22;6647;53.688;10.746;2023-05-31T03:54:29;10.80;99.90
13164;DHT22;6647;53.688;10.746;2023-05-31T03:55:31;10.80;99.90
13164;DHT22;6647;53.688;10.746;2023-05-31T03:56:33;10.80;99.90
13164;DHT22;6647;53.688;10.746;2023-05-31T03:57:34;10.80;99.90
13164;DHT22;6647;53.688;10.746;2023-05-31T03:58:34;10.80;99.90
13164;DHT22;6647;53.688;10.746;2023-05-31T03:59:35;10.80;99.90
13164;DHT22;6647;53.688;10.746;2023-05-31T04:00:36;10.80;99.90
13164;DHT22;6647;53.688;10.746;2023-05-31T04:01:37;10.80;99.90
13164;DHT22;6647;53.688;10.746;2023-05-31T04:02:39;10.80;99.90
13164;DHT22;6647;53.688;10.746;2023-05-31T04:03:40;10.80;99.90
13164;DHT22;6647;53.688;10.746;2023-05-31T04:04:40;10.70;99.90
13164;DHT22;6647;53.688;10.746;2023-05-31T04:05:41;10.80;99.90
13164;DHT22;6647;53.688;10.746;2023-05-31T04:06:42;10.70;99.90
13164;DHT22;6647;53.688;10.746;2023-05-31T04:07:43;10.70;99.90
13164;DHT22;6647;53.688;10.746;2023-05-31T04:08:44;10.70;99.90
13164;DHT22;6647;53.688;10.746;2023-05-31T04:09:45;10.70;99.90
13164;DHT22;6647;53.688;10.746;2023-05-31T04:10:46;10.70;99.90
13164;DHT22;6647;53.688;10.746;2023-05-31T04:11:47;10.70;99.90
13164;DHT22;6647;53.688;10.746;2023-05-31T04:12:48;10.70;99.90
13164;DHT22;6647;53.688;10.746;2023-05-31T04:13:49;10.70;99.90
13164;DHT22;6647;53.688;10.746;2023-05-31T04:14:50;10.70;99.90
13164;DHT22;6647;53.688;10.746;2023-05-31T04:15:50;10.70;99.90
13164;DHT22;6647;53.688;10.746;2023-05-31T04:16:52;10.70;99.90
13164;DHT22;6647;53.688;10.746;2023-05-31T04:17:52;10.70;99.90
13164;DHT22;6647;53.688;10.746;2023-05-31T04:18:53;10.70;99.90
13164;DHT22;6647;53.688;10.746;2023-05-31T04:19:54;10.70;99.90
13164;DHT22;6647;53.688;10.746;2023-05-31T04:20:55;10.70;99.90
13164;DHT22;6647;53.688;10.746;2023-05-31T04:21:56;10.70;99.90
13164;DHT22;6647;53.688;10.746;2023-05-31T04:22:56;10.70;99.90
13164;DHT22;6647;53.688;10.746;2023-05-31T04:23:57;10.70;99.90
13164;DHT22;6647;53.688;10.746;2023-05-31T04:24:58;10.70;99.90
13164;DHT22;6647;53.688;10.746;2023-05-31T04:25:59;10.70;99.90
13164;DHT22;6647;53.688;10.746;2023-05-31T04:27:03;10.70;99.90
13164;DHT22;6647;53.688;10.746;2023-05-31T04:28:05;10.70;99.90
13164;DHT22;6647;53.688;10.746;2023-05-31T04:29:06;10.70;99.90
13164;DHT22;6647;53.688;10.746;2023-05-31T04:30:07;10.70;99.90
13164;DHT22;6647;53.688;10.746;2023-05-31T04:31:08;10.70;99.90
13164;DHT22;6647;53.688;10.746;2023-05-31T04:32:10;10.70;99.90
13164;DHT22;6647;53.688;10.746;2023-05-31T04:33:14;10.70;99.90
13164;DHT22;6647;53.688;10.746;2023-05-31T04:34:18;10.70;99.90
13164;DHT22;6647;53.688;10.746;2023-05-31T04:35:19;10.70;99.90
13164;DHT22;6647;53.688;10.746;2023-05-31T04:36:20;10.70;99.90
13164;DHT22;6647;53.688;10.746;2023-05-31T04:37:21;10.70;99.90
13164;DHT22;6647;53.688;10.746;2023-05-31T04:38:22;10.70;99.90
13164;DHT22;6647;53.688;10.746;2023-05-31T04:39:24;10.70;99.90
13164;DHT22;6647;53.688;10.746;2023-05-31T04:40:26;10.70;99.90
13164;DHT22;6647;53.688;10.746;2023-05-31T04:41:27;10.70;99.90
13164;DHT22;6647;53.688;10.746;2023-05-31T04:42:29;10.70;99.90
13164;DHT22;6647;53.688;10.746;2023-05-31T04:43:30;10.70;99.90
13164;DHT22;6647;53.688;10.746;2023-05-31T04:44:30;10.70;99.90
13164;DHT22;6647;53.688;10.746;2023-05-31T04:45:32;10.70;99.90
13164;DHT22;6647;53.688;10.746;2023-05-31T04:46:33;10.70;99.90
13164;DHT22;6647;53.688;10.746;2023-05-31T04:47:33;10.70;99.90
13164;DHT22;6647;53.688;10.746;2023-05-31T04:48:35;10.70;99.90
13164;DHT22;6647;53.688;10.746;2023-05-31T04:49:35;10.70;99.90
13164;DHT22;6647;53.688;10.746;2023-05-31T04:50:36;10.70;99.90
13164;DHT22;6647;53.688;10.746;2023-05-31T04:51:37;10.70;99.90
13164;DHT22;6647;53.688;10.746;2023-05-31T04:52:38;10.70;99.90
13164;DHT22;6647;53.688;10.746;2023-05-31T04:53:40;10.80;99.90
13164;DHT22;6647;53.688;10.746;2023-05-31T04:54:41;10.70;99.90
13164;DHT22;6647;53.688;10.746;2023-05-31T04:55:42;10.70;99.90
13164;DHT22;6647;53.688;10.746;2023-05-31T04:56:42;10.70;99.90
13164;DHT22;6647;53.688;10.746;2023-05-31T04:57:43;10.80;99.90
13164;DHT22;6647;53.688;10.746;2023-05-31T04:58:44;10.80;99.90
13164;DHT22;6647;53.688;10.746;2023-05-31T04:59:45;10.80;99.90
13164;DHT22;6647;53.688;10.746;2023-05-31T05:00:46;10.80;99.90
13164;DHT22;6647;53.688;10.746;2023-05-31T05:01:47;10.80;99.90
13164;DHT22;6647;53.688;10.746;2023-05-31T05:02:48;10.80;99.90
13164;DHT22;6647;53.688;10.746;2023-05-31T05:03:49;10.80;99.90
13164;DHT22;6647;53.688;10.746;2023-05-31T05:04:52;10.80;99.90
13164;DHT22;6647;53.688;10.746;2023-05-31T05:05:52;10.90;99.90
13164;DHT22;6647;53.688;10.746;2023-05-31T05:06:53;10.90;99.90
13164;DHT22;6647;53.688;10.746;2023-05-31T05:07:54;10.90;99.90
13164;DHT22;6647;53.688;10.746;2023-05-31T05:08:54;10.90;99.90
13164;DHT22;6647;53.688;10.746;2023-05-31T05:09:55;10.90;99.90
13164;DHT22;6647;53.688;10.746;2023-05-31T05:10:56;10.90;99.90
13164;DHT22;6647;53.688;10.746;2023-05-31T05:11:56;10.90;99.90
13164;DHT22;6647;53.688;10.746;2023-05-31T05:12:57;11.00;99.90
13164;DHT22;6647;53.688;10.746;2023-05-31T05:13:58;11.00;99.90
13164;DHT22;6647;53.688;10.746;2023-05-31T05:14:59;11.00;99.90
13164;DHT22;6647;53.688;10.746;2023-05-31T05:16:00;11.00;99.90
13164;DHT22;6647;53.688;10.746;2023-05-31T05:17:01;11.10;99.90
13164;DHT22;6647;53.688;10.746;2023-05-31T05:18:02;11.10;99.90
13164;DHT22;6647;53.688;10.746;2023-05-31T05:19:03;11.10;99.90
13164;DHT22;6647;53.688;10.746;2023-05-31T05:20:04;11.20;99.90
13164;DHT22;6647;53.688;10.746;2023-05-31T05:21:05;11.20;99.90
13164;DHT22;6647;53.688;10.746;2023-05-31T05:22:07;11.20;99.90
13164;DHT22;6647;53.688;10.746;2023-05-31T05:23:08;11.20;99.90
13164;DHT22;6647;53.688;10.746;2023-05-31T05:24:09;11.20;99.90
13164;DHT22;6647;53.688;10.746;2023-05-31T05:25:09;11.20;99.90
13164;DHT22;6647;53.688;10.746;2023-05-31T05:26:11;11.30;99.90
13164;DHT22;6647;53.688;10.746;2023-05-31T05:27:12;11.30;99.90
13164;DHT22;6647;53.688;10.746;2023-05-31T05:28:13;11.40;99.90
13164;DHT22;6647;53.688;10.746;2023-05-31T05:29:14;11.40;99.90
13164;DHT22;6647;53.688;10.746;2023-05-31T05:30:15;11.40;99.90
13164;DHT22;6647;53.688;10.746;2023-05-31T05:31:16;11.50;99.90
13164;DHT22;6647;53.688;10.746;2023-05-31T05:32:17;11.50;99.90
13164;DHT22;6647;53.688;10.746;2023-05-31T05:33:18;11.50;99.90
13164;DHT22;6647;53.688;10.746;2023-05-31T05:34:19;11.60;99.90
13164;DHT22;6647;53.688;10.746;2023-05-31T05:35:20;11.60;99.90
13164;DHT22;6647;53.688;10.746;2023-05-31T05:36:21;11.60;99.90
13164;DHT22;6647;53.688;10.746;2023-05-31T05:37:22;11.70;99.90
13164;DHT22;6647;53.688;10.746;2023-05-31T05:38:23;11.70;99.90
13164;DHT22;6647;53.688;10.746;2023-05-31T05:39:24;11.70;99.90
13164;DHT22;6647;53.688;10.746;2023-05-31T05:40:25;11.70;99.90
13164;DHT22;6647;53.688;10.746;2023-05-31T05:41:26;11.70;99.90
13164;DHT22;6647;53.688;10.746;2023-05-31T05:42:27;11.80;99.90
13164;DHT22;6647;53.688;10.746;2023-05-31T05:43:28;11.80;99.90
13164;DHT22;6647;53.688;10.746;2023-05-31T05:44:30;11.90;99.90
13164;DHT22;6647;53.688;10.746;2023-05-31T05:45:32;11.90;99.90
13164;DHT22;6647;53.688;10.746;2023-05-31T05:46:32;11.90;99.90
13164;DHT22;6647;53.688;10.746;2023-05-31T05:47:34;11.90;99.90
13164;DHT22;6647;53.688;10.746;2023-05-31T05:48:37;12.00;99.90
13164;DHT22;6647;53.688;10.746;2023-05-31T05:49:38;12.00;99.90
13164;DHT22;6647;53.688;10.746;2023-05-31T05:50:39;12.00;99.90
13164;DHT22;6647;53.688;10.746;2023-05-31T05:51:39;12.10;99.90
13164;DHT22;6647;53.688;10.746;2023-05-31T05:52:41;12.10;99.90
13164;DHT22;6647;53.688;10.746;2023-05-31T05:53:41;12.10;99.90
13164;DHT22;6647;53.688;10.746;2023-05-31T05:54:42;12.20;99.90
13164;DHT22;6647;53.688;10.746;2023-05-31T05:55:53;12.20;99.90
13164;DHT22;6647;53.688;10.746;2023-05-31T05:56:54;12.20;99.90
13164;DHT22;6647;53.688;10.746;2023-05-31T05:57:56;12.20;99.90
13164;DHT22;6647;53.688;10.746;2023-05-31T05:58:56;12.30;99.90
13164;DHT22;6647;53.688;10.746;2023-05-31T05:59:57;12.30;99.90
13164;DHT22;6647;53.688;10.746;2023-05-31T06:00:58;12.40;99.90
13164;DHT22;6647;53.688;10.746;2023-05-31T06:01:59;12.40;99.90
13164;DHT22;6647;53.688;10.746;2023-05-31T06:02:59;12.40;99.90
13164;DHT22;6647;53.688;10.746;2023-05-31T06:04:00;12.50;99.90
13164;DHT22;6647;53.688;10.746;2023-05-31T06:05:01;12.50;99.90
13164;DHT22;6647;53.688;10.746;2023-05-31T06:06:01;12.50;99.90
13164;DHT22;6647;53.688;10.746;2023-05-31T06:07:03;12.60;99.90
13164;DHT22;6647;53.688;10.746;2023-05-31T06:08:04;12.60;99.90
13164;DHT22;6647;53.688;10.746;2023-05-31T06:09:04;12.70;99.90
13164;DHT22;6647;53.688;10.746;2023-05-31T06:10:06;12.70;99.90
13164;DHT22;6647;53.688;10.746;2023-05-31T06:11:07;12.70;99.90
13164;DHT22;6647;53.688;10.746;2023-05-31T06:12:09;12.80;99.90
13164;DHT22;6647;53.688;10.746;2023-05-31T06:13:09;12.80;99.90
13164;DHT22;6647;53.688;10.746;2023-05-31T06:14:12;12.90;99.90
13164;DHT22;6647;53.688;10.746;2023-05-31T06:15:13;12.90;99.90
13164;DHT22;6647;53.688;10.746;2023-05-31T06:16:14;12.90;99.90
13164;DHT22;6647;53.688;10.746;2023-05-31T06:17:15;13.00;99.90
13164;DHT22;6647;53.688;10.746;2023-05-31T06:18:16;13.00;99.90
13164;DHT22;6647;53.688;10.746;2023-05-31T06:19:19;13.00;99.90
13164;DHT22;6647;53.688;10.746;2023-05-31T06:20:20;13.10;99.90
13164;DHT22;6647;53.688;10.746;2023-05-31T06:21:21;13.10;99.90
13164;DHT22;6647;53.688;10.746;2023-05-31T06:22:22;13.20;99.90
13164;DHT22;6647;53.688;10.746;2023-05-31T06:23:23;13.20;99.90
13164;DHT22;6647;53.688;10.746;2023-05-31T06:24:24;13.20;99.90
13164;DHT22;6647;53.688;10.746;2023-05-31T06:25:26;13.30;99.90
13164;DHT22;6647;53.688;10.746;2023-05-31T06:26:27;13.30;99.90
13164;DHT22;6647;53.688;10.746;2023-05-31T06:27:29;13.40;99.90
13164;DHT22;6647;53.688;10.746;2023-05-31T06:28:30;13.40;99.90
13164;DHT22;6647;53.688;10.746;2023-05-31T06:29:31;13.50;99.90
13164;DHT22;6647;53.688;10.746;2023-05-31T06:30:31;13.50;99.90
13164;DHT22;6647;53.688;10.746;2023-05-31T06:31:33;13.50;99.90
13164;DHT22;6647;53.688;10.746;2023-05-31T06:32:35;13.50;99.90
13164;DHT22;6647;53.688;10.746;2023-05-31T06:33:36;13.60;99.90